Terminal Aerodrome Forecast
Issued by NWS

Home | Current Version | Previous Version | Text Only | Print | Product List | Glossary On
Versions: 1 2 3 4 5 6 7 8 9 10 11 12 13
000
FTUS42 TJSJ 062340
TAFJBQ
TAF
TJBQ 062340Z 0700/0724 07008KT P6SM SCT040 SCT050
     FM070230 10010KT P6SM SCT030
     FM071330 08018G25KT P6SM FEW030
      AMD NOT SKED 0702/0711=

USA.gov is the U.S. government's official web portal to all federal, state and local government web resources and services.